createdAt,value
2019-03-29T00:04:47.024Z,97283.95
2019-03-29T00:09:44.003Z,97281.31
2019-03-29T00:14:42.040Z,97283.36
2019-03-29T00:19:39.123Z,97295.84
2019-03-29T00:24:37.137Z,97285.47
2019-03-29T00:29:34.238Z,97282.66
2019-03-29T00:34:31.336Z,97290.50
2019-03-29T00:39:28.436Z,97290.05
2019-03-29T00:44:26.243Z,97288.11
2019-03-29T00:49:24.018Z,97294.98
2019-03-29T00:54:21.120Z,97304.66
2019-03-29T00:59:18.050Z,97290.30
2019-03-29T01:04:15.641Z,97304.06
2019-03-29T01:09:12.629Z,97302.70
2019-03-29T01:14:09.786Z,97307.39
2019-03-29T01:19:06.767Z,97309.59
2019-03-29T01:24:04.736Z,97309.06
2019-03-29T01:29:01.691Z,97308.08
2019-03-29T01:33:59.233Z,97303.76
2019-03-29T01:38:56.243Z,97297.89
2019-03-29T01:43:55.130Z,97311.48
2019-03-29T01:48:52.097Z,97322.88
2019-03-29T01:53:49.167Z,97315.48
2019-03-29T01:58:46.121Z,97317.19
2019-03-29T02:03:43.271Z,97320.47
2019-03-29T02:08:40.326Z,97312.22
2019-03-29T02:13:37.323Z,97321.73
2019-03-29T02:18:34.256Z,97314.88
2019-03-29T02:23:31.261Z,97316.16
2019-03-29T02:28:28.204Z,97315.38
2019-03-29T02:33:25.293Z,97314.72
2019-03-29T02:38:24.108Z,97311.73
2019-03-29T02:43:21.225Z,97311.92
2019-03-29T02:48:18.195Z,97318.05
2019-03-29T02:53:15.326Z,97322.81
2019-03-29T02:58:12.361Z,97328.16
2019-03-29T03:03:09.422Z,97328.98
2019-03-29T03:08:06.469Z,97330.55
2019-03-29T03:13:03.585Z,97331.25
2019-03-29T03:18:00.644Z,97332.91
2019-03-29T03:22:57.750Z,97331.58
2019-03-29T03:27:54.730Z,97328.91
2019-03-29T03:32:51.848Z,97332.77
2019-03-29T03:37:48.878Z,97337.75
2019-03-29T03:42:46.330Z,97337.88
2019-03-29T03:47:45.677Z,97344.03
2019-03-29T03:52:42.814Z,97342.16
2019-03-29T03:57:40.009Z,97343.48
2019-03-29T04:02:37.103Z,97335.44
2019-03-29T04:07:34.095Z,97342.47
2019-03-29T04:12:31.134Z,97337.97
2019-03-29T04:17:32.006Z,97344.72
2019-03-29T04:22:30.440Z,97352.93
2019-03-29T04:27:29.234Z,97350.92
2019-03-29T04:32:26.411Z,97357.38
2019-03-29T04:37:23.383Z,97360.64
2019-03-29T04:42:20.513Z,97369.80
2019-03-29T04:47:18.855Z,97369.20
2019-03-29T04:52:18.687Z,97361.20
2019-03-29T04:57:15.766Z,97352.58
2019-03-29T05:02:12.961Z,97341.84
2019-03-29T05:07:10.023Z,97350.05
2019-03-29T05:12:07.130Z,97351.78
2019-03-29T05:17:06.303Z,97349.39
2019-03-29T05:22:03.426Z,97353.98
2019-03-29T05:27:00.411Z,97361.33
2019-03-29T05:31:57.420Z,97351.61
2019-03-29T05:36:54.496Z,97355.28
2019-03-29T05:41:51.607Z,97362.22
2019-03-29T05:46:48.571Z,97366.40
2019-03-29T05:51:46.627Z,97368.09
2019-03-29T05:56:43.619Z,97367.71
2019-03-29T06:01:40.974Z,97361.39
2019-03-29T06:06:38.046Z,97366.81
2019-03-29T06:11:35.793Z,97359.31
2019-03-29T06:16:38.959Z,97358.92
2019-03-29T06:21:32.998Z,97361.53
2019-03-29T06:26:30.081Z,97365.66
2019-03-29T06:31:29.169Z,97372.72
2019-03-29T06:36:26.897Z,97365.38
2019-03-29T06:41:24.086Z,97366.48
2019-03-29T06:46:22.947Z,97376.77
2019-03-29T06:51:20.033Z,97378.17
2019-03-29T06:56:17.157Z,97386.45
2019-03-29T07:01:14.401Z,97382.88
2019-03-29T07:06:11.522Z,97386.60
2019-03-29T07:11:17.347Z,97390.55
2019-03-29T07:16:07.850Z,97380.92
2019-03-29T07:21:04.956Z,97383.11
2019-03-29T07:26:06.049Z,97375.05
2019-03-29T07:31:04.768Z,97365.79
2019-03-29T07:36:01.698Z,97364.30
2019-03-29T07:41:02.140Z,97365.41
2019-03-29T07:45:59.168Z,97375.55
2019-03-29T07:50:57.587Z,97369.70
2019-03-29T07:55:54.846Z,97369.92
2019-03-29T08:00:54.778Z,97368.23
2019-03-29T08:05:53.064Z,97369.80
2019-03-29T08:10:53.482Z,97369.06
2019-03-29T08:15:49.302Z,97357.93
2019-03-29T08:20:46.407Z,97349.94
2019-03-29T08:25:43.491Z,97355.32
2019-03-29T08:30:40.663Z,97358.59
2019-03-29T08:35:37.642Z,97362.63
2019-03-29T08:40:36.147Z,97356.71
2019-03-29T08:45:36.087Z,97347.98
2019-03-29T08:50:33.269Z,97363.13
2019-03-29T08:55:44.743Z,97363.61
2019-03-29T09:00:30.554Z,97354.87
2019-03-29T09:05:27.862Z,97335.92
2019-03-29T09:10:26.074Z,97335.59
2019-03-29T09:15:27.870Z,97345.16
2019-03-29T09:20:26.772Z,97350.98
2019-03-29T09:25:25.065Z,97336.95
2019-03-29T09:30:22.172Z,97345.56
2019-03-29T09:35:23.935Z,97343.78
2019-03-29T09:40:21.892Z,97328.44
2019-03-29T09:45:18.992Z,97320.66
2019-03-29T09:50:18.734Z,97328.78
2019-03-29T09:55:18.841Z,97315.75
2019-03-29T10:00:21.010Z,97321.67
2019-03-29T10:05:13.949Z,97318.69
2019-03-29T10:10:12.179Z,97319.10
2019-03-29T10:15:09.488Z,97308.31
2019-03-29T10:20:07.410Z,97310.52
2019-03-29T10:25:18.604Z,97304.18
2019-03-29T10:30:09.361Z,97302.92
2019-03-29T10:35:06.734Z,97299.35
2019-03-29T10:40:09.031Z,97298.11
2019-03-29T10:45:06.209Z,97284.35
2019-03-29T10:50:05.264Z,97290.27
2019-03-29T10:55:03.802Z,97279.06
2019-03-29T11:00:00.946Z,97280.64
2019-03-29T11:04:58.224Z,97287.27
2019-03-29T11:09:55.388Z,97281.44
2019-03-29T11:14:53.627Z,97275.22
2019-03-29T11:19:52.066Z,97267.80
2019-03-29T11:24:49.101Z,97273.00
2019-03-29T11:29:46.113Z,97263.72
2019-03-29T11:34:43.221Z,97267.13
2019-03-29T11:39:40.768Z,97255.98
2019-03-29T11:44:37.830Z,97243.42
2019-03-29T11:49:34.965Z,97232.23
2019-03-29T11:54:31.992Z,97231.71
2019-03-29T11:59:29.242Z,97220.63
2019-03-29T12:04:26.223Z,97225.59
2019-03-29T12:09:23.284Z,97225.46
2019-03-29T12:14:22.285Z,97213.00
2019-03-29T12:19:20.234Z,97202.77
2019-03-29T12:24:19.703Z,97197.20
2019-03-29T12:29:16.855Z,97187.20
2019-03-29T12:34:13.968Z,97184.48
2019-03-29T12:39:13.135Z,97176.15
2019-03-29T12:44:10.170Z,97174.64
2019-03-29T12:49:09.089Z,97168.45
2019-03-29T12:54:07.694Z,97164.20
2019-03-29T12:59:07.211Z,97165.82
2019-03-29T13:04:04.197Z,97142.13
2019-03-29T13:09:01.464Z,97132.19
2019-03-29T13:14:09.599Z,97126.28
2019-03-29T13:18:57.485Z,97128.78
2019-03-29T13:23:56.593Z,97126.81
2019-03-29T13:28:53.722Z,97131.02
2019-03-29T13:33:51.787Z,97127.34
2019-03-29T13:38:51.085Z,97119.50
2019-03-29T13:43:48.119Z,97117.30
2019-03-29T13:48:45.210Z,97107.19
2019-03-29T13:53:42.367Z,97105.99
2019-03-29T13:58:40.439Z,97094.23
2019-03-29T14:03:37.443Z,97089.47
2019-03-29T14:08:34.587Z,97085.84
2019-03-29T14:13:31.733Z,97077.56
2019-03-29T14:18:31.737Z,97069.27
2019-03-29T14:23:31.542Z,97062.33
2019-03-29T14:28:28.743Z,97059.86
2019-03-29T14:33:25.918Z,97047.66
2019-03-29T14:38:25.074Z,97040.59
2019-03-29T14:43:23.835Z,97036.74
2019-03-29T14:48:23.680Z,97040.09
2019-03-29T14:53:22.990Z,97040.07
2019-03-29T14:58:20.697Z,97031.55
2019-03-29T15:03:22.996Z,97034.53
2019-03-29T15:08:27.370Z,97029.06
2019-03-29T15:13:33.226Z,97045.85
2019-03-29T15:18:46.186Z,97039.84
2019-03-29T15:23:53.102Z,97044.78
2019-03-29T15:29:00.978Z,97041.39
2019-03-29T15:34:03.818Z,97041.94
2019-03-29T15:39:03.917Z,97038.81
2019-03-29T15:44:08.188Z,97049.79
2019-03-29T15:49:08.501Z,97036.37
2019-03-29T15:54:05.634Z,97039.70
2019-03-29T15:59:10.455Z,97041.98
2019-03-29T16:04:07.570Z,97045.98
2019-03-29T16:09:05.531Z,97036.94
2019-03-29T16:14:02.752Z,97034.14
2019-03-29T16:19:01.510Z,97031.20
2019-03-29T16:23:58.687Z,97031.23
2019-03-29T16:28:56.731Z,97040.12
2019-03-29T16:33:53.870Z,97036.09
2019-03-29T16:38:51.141Z,97023.69
2019-03-29T16:43:48.319Z,97039.28
2019-03-29T16:48:46.049Z,97038.33
2019-03-29T16:53:43.086Z,97035.44
2019-03-29T16:58:42.041Z,97038.88
2019-03-29T17:03:39.130Z,97046.70
2019-03-29T17:08:36.412Z,97043.73
2019-03-29T17:13:33.515Z,97045.11
2019-03-29T17:18:32.191Z,97049.00
2019-03-29T17:23:29.254Z,97052.02
2019-03-29T17:28:26.359Z,97055.38
2019-03-29T17:33:23.898Z,97064.56
2019-03-29T17:38:21.124Z,97061.15
2019-03-29T17:43:18.160Z,97066.05
2019-03-29T17:48:15.369Z,97073.33
2019-03-29T17:53:12.460Z,97073.09
2019-03-29T17:58:10.032Z,97065.84
2019-03-29T18:03:07.067Z,97064.41
2019-03-29T18:08:04.214Z,97063.88
2019-03-29T18:13:01.257Z,97067.87
2019-03-29T18:17:58.408Z,97069.91
2019-03-29T18:22:55.533Z,97065.25
2019-03-29T18:27:52.671Z,97069.07
2019-03-29T18:32:49.724Z,97065.86
2019-03-29T18:37:47.446Z,97074.11
2019-03-29T18:42:44.662Z,97062.20
2019-03-29T18:47:41.924Z,97078.07
2019-03-29T18:52:42.821Z,97069.13
2019-03-29T18:57:40.076Z,97064.93
2019-03-29T19:02:37.746Z,97075.97
2019-03-29T19:07:36.091Z,97074.89
2019-03-29T19:12:33.482Z,97074.45
2019-03-29T19:17:30.691Z,97066.06
2019-03-29T19:22:27.913Z,97064.68
2019-03-29T19:27:25.186Z,97065.80
2019-03-29T19:32:22.858Z,97060.55
2019-03-29T19:37:20.002Z,97059.74
2019-03-29T19:42:17.859Z,97066.76
2019-03-29T19:47:14.939Z,97068.36
2019-03-29T19:52:12.002Z,97053.56
2019-03-29T19:57:09.626Z,97052.99
2019-03-29T20:02:06.666Z,97047.12
2019-03-29T20:07:04.469Z,97045.00
2019-03-29T20:12:01.694Z,97034.86
2019-03-29T20:16:59.420Z,97027.13
2019-03-29T20:21:56.659Z,97018.31
2019-03-29T20:26:53.737Z,97024.56
2019-03-29T20:31:50.889Z,97033.77
2019-03-29T20:36:48.376Z,97028.16
2019-03-29T20:41:45.714Z,97027.57
2019-03-29T20:46:43.701Z,97019.59
2019-03-29T20:51:40.741Z,97027.50
2019-03-29T20:56:38.056Z,97020.53
2019-03-29T21:01:35.479Z,97024.61
2019-03-29T21:06:32.762Z,97017.48
2019-03-29T21:11:29.831Z,97012.23
2019-03-29T21:16:33.552Z,97016.16
2019-03-29T21:21:30.688Z,97011.75
2019-03-29T21:26:28.227Z,97014.61
2019-03-29T21:31:25.444Z,97019.50
2019-03-29T21:36:22.564Z,97009.38
2019-03-29T21:41:19.629Z,97007.22
2019-03-29T21:46:16.744Z,97013.66
2019-03-29T21:51:14.926Z,97010.70
2019-03-29T21:56:12.091Z,97013.97
2019-03-29T22:01:09.152Z,97016.30
2019-03-29T22:06:06.389Z,97018.12
2019-03-29T22:11:03.448Z,97013.91
2019-03-29T22:16:00.525Z,97016.53
2019-03-29T22:20:57.511Z,97017.17
2019-03-29T22:25:57.201Z,97016.00
2019-03-29T22:30:54.358Z,97010.44
2019-03-29T22:35:51.470Z,96999.95
2019-03-29T22:40:48.510Z,97000.61
2019-03-29T22:45:46.512Z,97009.59
2019-03-29T22:50:43.482Z,97002.12
2019-03-29T22:55:41.414Z,96996.38
2019-03-29T23:00:43.640Z,96998.85
2019-03-29T23:05:40.761Z,96993.52
2019-03-29T23:10:37.816Z,96984.73
2019-03-29T23:15:34.899Z,96986.38
2019-03-29T23:20:34.758Z,96979.38
2019-03-29T23:25:31.900Z,96975.50
2019-03-29T23:30:30.402Z,96974.06
2019-03-29T23:35:27.445Z,96973.14
2019-03-29T23:40:26.430Z,96965.24
2019-03-29T23:45:23.487Z,96969.98
2019-03-29T23:50:20.627Z,96970.84
2019-03-29T23:55:17.671Z,96974.65
